createdAt,value
2019-05-30T00:01:13.408Z,101948.79
2019-05-30T00:04:05.150Z,101946.87
2019-05-30T00:06:58.649Z,101942.03
2019-05-30T00:09:50.185Z,101945.30
2019-05-30T00:12:42.207Z,101944.55
2019-05-30T00:15:33.650Z,101943.53
2019-05-30T00:18:25.457Z,101946.32
2019-05-30T00:21:16.782Z,101940.33
2019-05-30T00:24:08.367Z,101942.51
2019-05-30T00:27:00.250Z,101945.36
2019-05-30T00:29:51.759Z,101946.67
2019-05-30T00:32:43.186Z,101952.44
2019-05-30T00:35:34.895Z,101955.26
2019-05-30T00:38:26.766Z,101951.73
2019-05-30T00:41:18.163Z,101952.56
2019-05-30T00:44:09.869Z,101954.64
2019-05-30T00:47:02.421Z,101957.88
2019-05-30T00:49:56.182Z,101955.66
2019-05-30T00:52:47.724Z,101956.94
2019-05-30T00:55:39.409Z,101950.81
2019-05-30T00:58:31.672Z,101959.11
2019-05-30T01:01:22.982Z,101952.34
2019-05-30T01:04:14.292Z,101955.36
2019-05-30T01:07:07.099Z,101952.75
2019-05-30T01:09:59.154Z,101942.10
2019-05-30T01:12:50.947Z,101947.73
2019-05-30T01:15:42.679Z,101939.63
2019-05-30T01:18:34.311Z,101931.36
2019-05-30T01:21:26.331Z,101928.30
2019-05-30T01:24:17.746Z,101919.72
2019-05-30T01:27:09.059Z,101922.52
2019-05-30T01:30:01.639Z,101916.36
2019-05-30T01:32:53.450Z,101915.38
2019-05-30T01:35:45.049Z,101912.42
2019-05-30T01:38:36.460Z,101918.11
2019-05-30T01:41:27.956Z,101912.83
2019-05-30T01:44:19.576Z,101917.47
2019-05-30T01:47:11.149Z,101918.89
2019-05-30T01:50:02.743Z,101913.09
2019-05-30T01:52:55.022Z,101918.61
2019-05-30T01:55:48.766Z,101915.39
2019-05-30T01:58:39.307Z,101912.80
2019-05-30T02:01:31.190Z,101911.20
2019-05-30T02:04:22.917Z,101909.34
2019-05-30T02:07:14.581Z,101911.94
2019-05-30T02:10:07.412Z,101907.85
2019-05-30T02:12:59.856Z,101905.83
2019-05-30T02:15:51.848Z,101915.27
2019-05-30T02:18:43.603Z,101907.72
2019-05-30T02:21:35.294Z,101907.84
2019-05-30T02:24:26.699Z,101899.52
2019-05-30T02:27:18.083Z,101906.95
2019-05-30T02:30:12.697Z,101911.91
2019-05-30T02:33:05.315Z,101914.38
2019-05-30T02:35:56.663Z,101914.33
2019-05-30T02:38:47.953Z,101908.98
2019-05-30T02:41:39.315Z,101911.30
2019-05-30T02:44:30.647Z,101919.56
2019-05-30T02:47:22.628Z,101921.84
2019-05-30T02:50:15.093Z,101915.23
2019-05-30T02:53:08.268Z,101919.72
2019-05-30T02:56:01.327Z,101928.31
2019-05-30T02:58:52.792Z,101930.59
2019-05-30T03:02:00.313Z,101922.81
2019-05-30T03:04:37.448Z,101923.64
2019-05-30T03:07:28.991Z,101922.53
2019-05-30T03:10:20.294Z,101924.94
2019-05-30T03:13:12.929Z,101927.55
2019-05-30T03:16:06.869Z,101929.61
2019-05-30T03:18:57.830Z,101927.41
2019-05-30T03:21:49.087Z,101931.44
2019-05-30T03:24:40.428Z,101929.88
2019-05-30T03:27:32.025Z,101934.84
2019-05-30T03:30:28.123Z,101934.00
2019-05-30T03:33:36.089Z,101936.73
2019-05-30T03:36:22.112Z,101933.64
2019-05-30T03:39:05.644Z,101934.12
2019-05-30T03:41:56.792Z,101941.16
2019-05-30T03:44:49.018Z,101938.89
2019-05-30T03:47:45.257Z,101939.76
2019-05-30T03:50:39.729Z,101942.56
2019-05-30T03:53:32.589Z,101939.94
2019-05-30T03:56:32.773Z,101953.22
2019-05-30T03:59:31.450Z,101950.34
2019-05-30T04:02:57.325Z,101955.32
2019-05-30T04:05:46.449Z,101955.37
2019-05-30T04:08:39.657Z,101957.62
2019-05-30T04:11:43.399Z,101963.84
2019-05-30T04:14:39.505Z,101963.31
2019-05-30T04:17:30.760Z,101968.58
2019-05-30T04:20:23.311Z,101975.23
2019-05-30T04:23:15.374Z,101964.14
2019-05-30T04:26:09.574Z,101966.27
2019-05-30T04:29:01.398Z,101966.69
2019-05-30T04:31:52.776Z,101967.29
2019-05-30T04:34:44.294Z,101968.56
2019-05-30T04:37:35.607Z,101970.94
2019-05-30T04:40:27.811Z,101967.19
2019-05-30T04:43:20.259Z,101970.59
2019-05-30T04:46:16.012Z,101967.42
2019-05-30T04:49:07.649Z,101969.52
2019-05-30T04:51:58.924Z,101976.33
2019-05-30T04:54:50.271Z,101978.05
2019-05-30T04:57:41.733Z,101983.45
2019-05-30T05:00:33.564Z,101982.78
2019-05-30T05:03:44.229Z,101990.58
2019-05-30T05:06:19.950Z,101991.08
2019-05-30T05:09:12.089Z,101994.95
2019-05-30T05:12:03.960Z,101999.03
2019-05-30T05:14:55.989Z,101997.85
2019-05-30T05:17:47.256Z,102000.33
2019-05-30T05:20:38.433Z,101996.31
2019-05-30T05:23:29.963Z,101991.25
2019-05-30T05:26:21.606Z,102000.51
2019-05-30T05:29:13.968Z,101998.16
2019-05-30T05:32:05.743Z,102002.36
2019-05-30T05:34:57.151Z,102006.31
2019-05-30T05:37:48.399Z,102007.48
2019-05-30T05:40:39.805Z,102008.06
2019-05-30T05:43:31.611Z,102014.23
2019-05-30T05:46:24.487Z,102018.52
2019-05-30T05:49:16.360Z,102021.85
2019-05-30T05:52:11.933Z,102023.09
2019-05-30T05:55:01.396Z,102027.84
2019-05-30T05:57:54.763Z,102031.58
2019-05-30T06:00:46.375Z,102035.39
2019-05-30T06:03:37.674Z,102034.86
2019-05-30T06:06:31.522Z,102036.70
2019-05-30T06:09:23.028Z,102034.84
2019-05-30T06:12:14.627Z,102041.61
2019-05-30T06:15:06.700Z,102042.50
2019-05-30T06:17:59.052Z,102044.02
2019-05-30T06:20:50.387Z,102053.61
2019-05-30T06:23:45.402Z,102056.50
2019-05-30T06:26:35.225Z,102057.91
2019-05-30T06:29:26.997Z,102053.98
2019-05-30T06:32:20.871Z,102048.44
2019-05-30T06:35:12.739Z,102052.19
2019-05-30T06:38:04.970Z,102051.17
2019-05-30T06:40:56.443Z,102052.50
2019-05-30T06:43:47.794Z,102059.27
2019-05-30T06:46:39.642Z,102057.75
2019-05-30T06:49:32.073Z,102061.02
2019-05-30T06:52:24.877Z,102061.07
2019-05-30T06:55:16.532Z,102058.92
2019-05-30T06:58:07.863Z,102060.42
2019-05-30T07:00:59.233Z,102059.55
2019-05-30T07:03:51.106Z,102060.83
2019-05-30T07:06:43.484Z,102060.86
2019-05-30T07:09:35.408Z,102065.97
2019-05-30T07:12:27.531Z,102065.06
2019-05-30T07:15:19.531Z,102063.78
2019-05-30T07:18:10.931Z,102068.80
2019-05-30T07:21:02.609Z,102069.85
2019-05-30T07:23:54.121Z,102075.23
2019-05-30T07:26:45.682Z,102081.39
2019-05-30T07:29:37.472Z,102086.00
2019-05-30T07:32:30.015Z,102088.86
2019-05-30T07:35:21.862Z,102089.72
2019-05-30T07:38:13.243Z,102093.80
2019-05-30T07:41:04.753Z,102099.81
2019-05-30T07:43:56.362Z,102095.03
2019-05-30T07:46:47.859Z,102103.63
2019-05-30T07:49:40.087Z,102102.28
2019-05-30T07:52:32.668Z,102102.66
2019-05-30T07:55:24.129Z,102104.70
2019-05-30T07:58:15.942Z,102108.58
2019-05-30T08:01:08.742Z,102108.73
2019-05-30T08:04:00.139Z,102109.11
2019-05-30T08:06:51.878Z,102112.42
2019-05-30T08:09:43.264Z,102112.55
2019-05-30T08:12:35.901Z,102116.66
2019-05-30T08:15:27.536Z,102116.94
2019-05-30T08:18:18.984Z,102121.05
2019-05-30T08:21:10.684Z,102121.50
2019-05-30T08:24:02.115Z,102120.30
2019-05-30T08:26:53.646Z,102120.48
2019-05-30T08:29:45.158Z,102117.05
2019-05-30T08:32:36.976Z,102116.36
2019-05-30T08:35:39.327Z,102118.63
2019-05-30T08:38:21.482Z,102104.80
2019-05-30T08:41:13.223Z,102114.97
2019-05-30T08:44:06.039Z,102117.99
2019-05-30T08:46:57.750Z,102128.84
2019-05-30T08:49:49.369Z,102128.54
2019-05-30T08:52:41.211Z,102137.78
2019-05-30T08:55:32.592Z,102142.16
2019-05-30T08:58:24.379Z,102141.08
2019-05-30T09:01:15.873Z,102133.41
2019-05-30T09:04:08.490Z,102129.13
2019-05-30T09:07:00.955Z,102123.55
2019-05-30T09:09:53.653Z,102125.52
2019-05-30T09:12:48.781Z,102119.48
2019-05-30T09:15:39.116Z,102122.38
2019-05-30T09:18:30.745Z,102115.17
2019-05-30T09:21:22.275Z,102112.52
2019-05-30T09:24:13.555Z,102117.13
2019-05-30T09:27:04.996Z,102127.38
2019-05-30T09:29:56.316Z,102138.87
2019-05-30T09:32:48.645Z,102141.61
2019-05-30T09:35:41.437Z,102138.58
2019-05-30T09:38:33.672Z,102139.46
2019-05-30T09:41:25.364Z,102142.88
2019-05-30T09:44:16.904Z,102154.18
2019-05-30T09:47:08.545Z,102155.47
2019-05-30T09:50:03.717Z,102162.05
2019-05-30T09:52:53.833Z,102162.74
2019-05-30T09:55:46.165Z,102164.38
2019-05-30T09:58:38.758Z,102165.05
2019-05-30T10:01:30.122Z,102168.23
2019-05-30T10:04:21.660Z,102164.92
2019-05-30T10:07:14.001Z,102173.84
2019-05-30T10:10:06.085Z,102173.90
2019-05-30T10:12:57.647Z,102175.66
2019-05-30T10:15:48.879Z,102181.72
2019-05-30T10:18:40.114Z,102181.63
2019-05-30T10:21:31.427Z,102178.17
2019-05-30T10:24:23.052Z,102177.95
2019-05-30T10:27:14.415Z,102173.66
2019-05-30T10:30:07.639Z,102173.48
2019-05-30T10:33:00.191Z,102183.78
2019-05-30T10:35:53.329Z,102177.09
2019-05-30T10:38:45.412Z,102180.11
2019-05-30T10:41:38.355Z,102180.92
2019-05-30T10:44:30.142Z,102190.28
2019-05-30T10:47:21.538Z,102189.73
2019-05-30T10:50:13.916Z,102191.75
2019-05-30T10:53:05.548Z,102202.12
2019-05-30T10:55:57.147Z,102203.06
2019-05-30T10:58:48.952Z,102207.25
2019-05-30T11:01:40.489Z,102202.97
2019-05-30T11:04:32.031Z,102205.60
2019-05-30T11:07:36.045Z,102208.09
2019-05-30T11:10:39.865Z,102204.88
2019-05-30T11:13:31.474Z,102194.06
2019-05-30T11:16:22.815Z,102188.77
2019-05-30T11:19:14.156Z,102187.25
2019-05-30T11:22:05.742Z,102178.80
2019-05-30T11:24:57.001Z,102182.13
2019-05-30T11:27:48.602Z,102178.03
2019-05-30T11:30:40.722Z,102176.70
2019-05-30T11:33:33.810Z,102189.82
2019-05-30T11:36:25.238Z,102187.45
2019-05-30T11:39:16.433Z,102194.22
2019-05-30T11:42:07.956Z,102196.87
2019-05-30T11:44:59.950Z,102196.72
2019-05-30T11:47:51.813Z,102193.45
2019-05-30T11:50:43.373Z,102192.78
2019-05-30T11:53:35.030Z,102195.39
2019-05-30T11:56:26.569Z,102192.05
2019-05-30T11:59:18.072Z,102195.17
2019-05-30T12:02:09.933Z,102193.00
2019-05-30T12:05:01.413Z,102192.82
2019-05-30T12:07:52.974Z,102188.97
2019-05-30T12:10:46.127Z,102192.35
2019-05-30T12:13:37.450Z,102187.18
2019-05-30T12:16:28.950Z,102183.36
2019-05-30T12:19:21.447Z,102182.55
2019-05-30T12:22:12.733Z,102176.59
2019-05-30T12:25:04.096Z,102182.67
2019-05-30T12:27:56.018Z,102175.14
2019-05-30T12:30:57.754Z,102177.02
2019-05-30T12:33:40.649Z,102169.83
2019-05-30T12:36:32.025Z,102169.63
2019-05-30T12:39:23.622Z,102158.06
2019-05-30T12:42:14.883Z,102166.15
2019-05-30T12:45:07.368Z,102164.20
2019-05-30T12:47:59.279Z,102162.02
2019-05-30T12:50:50.826Z,102156.49
2019-05-30T12:53:42.324Z,102160.15
2019-05-30T12:56:34.070Z,102171.42
2019-05-30T12:59:25.438Z,102160.84
2019-05-30T13:02:17.050Z,102171.16
2019-05-30T13:05:09.195Z,102172.52
2019-05-30T13:08:14.037Z,102160.78
2019-05-30T13:10:53.709Z,102172.45
2019-05-30T13:13:44.977Z,102176.41
2019-05-30T13:16:36.440Z,102165.45
2019-05-30T13:19:27.965Z,102166.08
2019-05-30T13:22:19.592Z,102170.83
2019-05-30T13:25:13.448Z,102172.97
2019-05-30T13:28:08.507Z,102179.19
2019-05-30T13:31:00.295Z,102179.64
2019-05-30T13:33:51.665Z,102188.17
2019-05-30T13:36:42.955Z,102174.88
2019-05-30T13:39:34.377Z,102173.53
2019-05-30T13:42:25.678Z,102178.94
2019-05-30T13:45:17.284Z,102178.42
2019-05-30T13:48:08.750Z,102182.36
2019-05-30T13:51:00.727Z,102182.36
2019-05-30T13:53:52.146Z,102180.04
2019-05-30T13:56:43.432Z,102188.52
2019-05-30T13:59:34.962Z,102189.58
2019-05-30T14:02:26.392Z,102194.05
2019-05-30T14:05:17.813Z,102191.81
2019-05-30T14:08:15.966Z,102193.44
2019-05-30T14:11:02.562Z,102196.20
2019-05-30T14:13:53.930Z,102194.62
2019-05-30T14:16:45.187Z,102198.97
2019-05-30T14:19:36.860Z,102198.48
2019-05-30T14:22:28.166Z,102197.29
2019-05-30T14:25:21.322Z,102196.19
2019-05-30T14:28:12.606Z,102199.44
2019-05-30T14:31:05.049Z,102194.77
2019-05-30T14:33:57.494Z,102191.36
2019-05-30T14:36:48.845Z,102193.54
2019-05-30T14:39:40.753Z,102202.22
2019-05-30T14:42:32.084Z,102194.62
2019-05-30T14:45:23.712Z,102198.91
2019-05-30T14:48:15.230Z,102199.02
2019-05-30T14:51:06.652Z,102195.61
2019-05-30T14:53:58.188Z,102206.87
2019-05-30T14:56:49.552Z,102208.23
2019-05-30T14:59:40.794Z,102205.89
2019-05-30T15:02:32.373Z,102205.61
2019-05-30T15:05:23.902Z,102208.88
2019-05-30T15:08:16.781Z,102210.91
2019-05-30T15:11:09.477Z,102203.03
2019-05-30T15:14:01.343Z,102206.81
2019-05-30T15:16:53.676Z,102210.92
2019-05-30T15:19:45.206Z,102206.47
2019-05-30T15:22:36.786Z,102217.49
2019-05-30T15:25:28.775Z,102214.81
2019-05-30T15:28:20.174Z,102214.53
2019-05-30T15:31:12.435Z,102218.14
2019-05-30T15:34:03.905Z,102209.42
2019-05-30T15:36:55.239Z,102215.33
2019-05-30T15:39:46.770Z,102213.23
2019-05-30T15:42:38.206Z,102213.07
2019-05-30T15:45:29.583Z,102222.32
2019-05-30T15:48:22.363Z,102225.80
2019-05-30T15:51:14.715Z,102219.05
2019-05-30T15:54:06.511Z,102214.32
2019-05-30T15:56:57.965Z,102212.19
2019-05-30T15:59:50.275Z,102208.59
2019-05-30T16:02:41.860Z,102210.83
2019-05-30T16:05:33.106Z,102204.77
2019-05-30T16:08:24.561Z,102204.06
2019-05-30T16:11:16.968Z,102209.52
2019-05-30T16:14:08.488Z,102210.17
2019-05-30T16:17:00.042Z,102204.39
2019-05-30T16:19:53.157Z,102194.79
2019-05-30T16:22:44.653Z,102194.64
2019-05-30T16:25:35.981Z,102195.89
2019-05-30T16:28:27.293Z,102194.56
2019-05-30T16:31:19.890Z,102195.08
2019-05-30T16:34:12.011Z,102196.86
2019-05-30T16:37:03.668Z,102200.47
2019-05-30T16:40:05.162Z,102196.06
2019-05-30T16:42:48.241Z,102196.73
2019-05-30T16:45:39.738Z,102193.72
2019-05-30T16:48:31.021Z,102194.36
2019-05-30T16:51:23.547Z,102187.27
2019-05-30T16:54:15.200Z,102187.41
2019-05-30T16:57:06.567Z,102183.33
2019-05-30T16:59:58.076Z,102189.36
2019-05-30T17:02:49.423Z,102191.28
2019-05-30T17:05:40.818Z,102194.62
2019-05-30T17:08:32.155Z,102197.28
2019-05-30T17:11:24.074Z,102191.44
2019-05-30T17:14:15.697Z,102192.77
2019-05-30T17:17:07.319Z,102196.66
2019-05-30T17:19:58.709Z,102198.41
2019-05-30T17:22:51.549Z,102199.69
2019-05-30T17:25:44.596Z,102209.07
2019-05-30T17:28:36.069Z,102206.87
2019-05-30T17:31:28.693Z,102203.77
2019-05-30T17:34:20.132Z,102204.44
2019-05-30T17:37:11.608Z,102211.83
2019-05-30T17:40:02.916Z,102205.75
2019-05-30T17:42:54.429Z,102208.48
2019-05-30T17:45:46.547Z,102212.28
2019-05-30T17:48:37.804Z,102214.23
2019-05-30T17:51:29.985Z,102213.44
2019-05-30T17:54:21.816Z,102221.33
2019-05-30T17:57:13.078Z,102216.77
2019-05-30T18:00:04.832Z,102223.11
2019-05-30T18:02:57.714Z,102230.42
2019-05-30T18:05:49.282Z,102231.14
2019-05-30T18:08:40.701Z,102233.65
2019-05-30T18:11:32.063Z,102232.32
2019-05-30T18:14:24.763Z,102235.91
2019-05-30T18:17:16.251Z,102240.89
2019-05-30T18:20:09.027Z,102241.48
2019-05-30T18:23:00.403Z,102240.92
2019-05-30T18:25:51.991Z,102242.46
2019-05-30T18:28:44.800Z,102239.48
2019-05-30T18:31:36.098Z,102241.77
2019-05-30T18:34:28.385Z,102245.88
2019-05-30T18:37:20.244Z,102246.15
2019-05-30T18:40:14.204Z,102239.16
2019-05-30T18:43:05.907Z,102249.03
2019-05-30T18:45:57.510Z,102247.13
2019-05-30T18:48:49.232Z,102247.31
2019-05-30T18:51:40.750Z,102241.94
2019-05-30T18:54:32.942Z,102241.70
2019-05-30T18:57:24.619Z,102249.19
2019-05-30T19:00:18.578Z,102245.25
2019-05-30T19:03:10.475Z,102245.78
2019-05-30T19:06:01.868Z,102248.61
2019-05-30T19:08:53.245Z,102249.12
2019-05-30T19:11:44.584Z,102253.20
2019-05-30T19:14:37.424Z,102255.55
2019-05-30T19:17:29.589Z,102260.23
2019-05-30T19:20:21.363Z,102259.30
2019-05-30T19:23:13.716Z,102264.65
2019-05-30T19:26:05.089Z,102268.59
2019-05-30T19:28:56.546Z,102276.63
2019-05-30T19:31:48.104Z,102280.19
2019-05-30T19:34:39.489Z,102284.05
2019-05-30T19:37:31.238Z,102285.41
2019-05-30T19:40:24.878Z,102286.75
2019-05-30T19:43:15.897Z,102287.41
2019-05-30T19:46:07.832Z,102290.05
2019-05-30T19:48:59.179Z,102297.20
2019-05-30T19:51:50.544Z,102292.74
2019-05-30T19:54:42.337Z,102297.11
2019-05-30T19:57:35.578Z,102300.05
2019-05-30T20:00:29.757Z,102305.27
2019-05-30T20:03:35.779Z,102308.11
2019-05-30T20:06:14.306Z,102308.84
2019-05-30T20:09:08.146Z,102310.39
2019-05-30T20:12:03.190Z,102305.03
2019-05-30T20:14:52.598Z,102316.25
2019-05-30T20:17:43.872Z,102318.10
2019-05-30T20:20:50.379Z,102318.23
2019-05-30T20:23:28.810Z,102314.63
2019-05-30T20:26:20.148Z,102321.83
2019-05-30T20:29:12.538Z,102322.94
2019-05-30T20:32:03.987Z,102320.02
2019-05-30T20:34:55.578Z,102323.91
2019-05-30T20:37:47.133Z,102331.34
2019-05-30T20:40:38.894Z,102337.19
2019-05-30T20:43:33.164Z,102338.64
2019-05-30T20:46:23.865Z,102342.02
2019-05-30T20:49:15.210Z,102340.50
2019-05-30T20:52:06.661Z,102348.79
2019-05-30T20:54:58.097Z,102353.64
2019-05-30T20:57:49.394Z,102356.77
2019-05-30T21:00:42.205Z,102361.36
2019-05-30T21:03:33.830Z,102366.79
2019-05-30T21:06:25.194Z,102370.59
2019-05-30T21:11:36.117Z,102376.53
2019-05-30T21:12:09.649Z,102378.58
2019-05-30T21:15:03.428Z,102376.26
2019-05-30T21:17:54.824Z,102375.70
2019-05-30T21:20:46.257Z,102380.58
2019-05-30T21:23:38.322Z,102382.55
2019-05-30T21:26:29.575Z,102385.94
2019-05-30T21:29:21.059Z,102385.84
2019-05-30T21:32:12.383Z,102384.16
2019-05-30T21:35:03.531Z,102389.86
2019-05-30T21:37:55.001Z,102392.75
2019-05-30T21:40:46.735Z,102389.90
2019-05-30T21:43:38.320Z,102392.13
2019-05-30T21:46:29.712Z,102395.66
2019-05-30T21:49:21.145Z,102395.18
2019-05-30T21:52:12.635Z,102403.28
2019-05-30T21:55:03.986Z,102403.73
2019-05-30T21:57:55.459Z,102404.42
2019-05-30T22:01:34.249Z,102405.29
2019-05-30T22:04:25.832Z,102400.86
2019-05-30T22:07:17.568Z,102402.75
2019-05-30T22:10:09.243Z,102403.16
2019-05-30T22:13:09.243Z,102412.20
2019-05-30T22:15:53.654Z,102409.79
2019-05-30T22:18:45.956Z,102409.02
2019-05-30T22:21:37.506Z,102405.67
2019-05-30T22:24:29.234Z,102408.67
2019-05-30T22:27:20.732Z,102406.29
2019-05-30T22:30:12.316Z,102410.80
2019-05-30T22:33:03.893Z,102409.44
2019-05-30T22:35:55.426Z,102410.42
2019-05-30T22:38:46.839Z,102411.97
2019-05-30T22:41:38.369Z,102417.47
2019-05-30T22:44:29.740Z,102416.66
2019-05-30T22:47:22.325Z,102418.33
2019-05-30T22:50:14.176Z,102409.63
2019-05-30T22:53:07.356Z,102411.02
2019-05-30T22:55:58.966Z,102410.50
2019-05-30T22:58:51.691Z,102408.84
2019-05-30T23:01:44.798Z,102404.36
2019-05-30T23:04:36.417Z,102402.03
2019-05-30T23:07:27.906Z,102406.58
2019-05-30T23:10:20.025Z,102411.36
2019-05-30T23:13:11.570Z,102402.95
2019-05-30T23:16:03.103Z,102403.09
2019-05-30T23:18:54.831Z,102405.17
2019-05-30T23:21:46.774Z,102410.23
2019-05-30T23:24:38.458Z,102406.56
2019-05-30T23:27:30.807Z,102411.42
2019-05-30T23:30:22.590Z,102412.63
2019-05-30T23:33:14.093Z,102412.70
2019-05-30T23:36:05.391Z,102408.80
2019-05-30T23:38:57.371Z,102408.72
2019-05-30T23:41:48.972Z,102410.82
2019-05-30T23:44:40.464Z,102410.76
2019-05-30T23:47:31.859Z,102413.77
2019-05-30T23:50:23.324Z,102409.02
2019-05-30T23:53:14.645Z,102412.72
2019-05-30T23:56:06.309Z,102407.54
2019-05-30T23:58:58.882Z,102408.53
